createdAt,value
2022-12-22T00:01:38.623Z,0.88
2022-12-22T00:04:29.243Z,1.20
2022-12-22T00:07:14.460Z,1.14
2022-12-22T00:09:59.678Z,1.28
2022-12-22T00:12:46.052Z,1.17
2022-12-22T00:15:35.921Z,0.79
2022-12-22T00:18:22.076Z,1.14
2022-12-22T00:21:07.585Z,1.20
2022-12-22T00:23:52.749Z,0.96
2022-12-22T00:26:38.160Z,1.09
2022-12-22T00:29:23.966Z,0.99
2022-12-22T00:32:09.172Z,1.06
2022-12-22T00:34:59.938Z,1.03
2022-12-22T00:37:51.736Z,0.98
2022-12-22T00:40:40.670Z,1.16
2022-12-22T00:43:25.905Z,1.01
2022-12-22T00:46:11.682Z,1.01
2022-12-22T00:49:00.636Z,1.19
2022-12-22T00:51:46.833Z,1.10
2022-12-22T00:54:33.683Z,1.06
2022-12-22T00:57:20.395Z,1.46
2022-12-22T01:00:08.198Z,1.42
2022-12-22T01:02:53.483Z,1.63
2022-12-22T01:05:38.922Z,1.85
2022-12-22T01:08:24.112Z,1.72
2022-12-22T01:11:09.430Z,1.57
2022-12-22T01:13:54.701Z,1.76
2022-12-22T01:16:39.989Z,1.70
2022-12-22T01:19:25.147Z,1.66
2022-12-22T01:22:10.286Z,1.61
2022-12-22T01:24:55.578Z,1.80
2022-12-22T01:27:40.815Z,1.81
2022-12-22T01:30:27.056Z,1.75
2022-12-22T01:33:12.382Z,1.60
2022-12-22T01:35:59.622Z,1.73
2022-12-22T01:38:44.813Z,1.70
2022-12-22T01:41:37.123Z,1.69
2022-12-22T01:44:32.062Z,1.94
2022-12-22T01:47:49.671Z,2.01
2022-12-22T01:50:40.012Z,1.68
2022-12-22T01:53:30.777Z,1.94
2022-12-22T01:56:17.977Z,1.98
2022-12-22T01:59:08.642Z,1.96
2022-12-22T02:01:54.593Z,1.87
2022-12-22T02:04:44.872Z,1.76
2022-12-22T02:07:46.783Z,1.68
2022-12-22T02:10:41.567Z,1.54
2022-12-22T02:14:02.161Z,1.70
2022-12-22T02:16:58.294Z,1.69
2022-12-22T02:20:13.461Z,1.60
2022-12-22T02:23:26.047Z,1.64
2022-12-22T02:26:39.283Z,1.50
2022-12-22T02:29:25.447Z,1.67
2022-12-22T02:32:10.983Z,1.40
2022-12-22T02:34:57.351Z,1.43
2022-12-22T02:37:51.841Z,1.60
2022-12-22T02:41:05.099Z,1.60
2022-12-22T02:44:01.179Z,1.59
2022-12-22T02:46:53.521Z,1.42
2022-12-22T02:49:47.442Z,1.70
2022-12-22T02:52:37.710Z,1.73
2022-12-22T02:55:23.654Z,1.62
2022-12-22T02:58:12.534Z,1.81
2022-12-22T03:00:58.378Z,1.85
2022-12-22T03:03:43.972Z,1.52
2022-12-22T03:06:29.180Z,1.60
2022-12-22T03:09:14.285Z,1.64
2022-12-22T03:11:59.964Z,1.81
2022-12-22T03:14:45.088Z,1.69
2022-12-22T03:17:30.276Z,1.66
2022-12-22T03:20:15.601Z,1.53
2022-12-22T03:23:00.648Z,1.51
2022-12-22T03:25:45.722Z,1.77
2022-12-22T03:28:12.428Z,2.09
2022-12-22T03:30:39.402Z,2.13
2022-12-22T03:33:06.772Z,2.23
2022-12-22T03:35:33.582Z,2.30
2022-12-22T03:38:03.661Z,2.35
2022-12-22T03:40:31.755Z,2.06
2022-12-22T03:43:16.928Z,2.32
2022-12-22T03:46:02.214Z,2.21
2022-12-22T03:48:28.885Z,2.41
2022-12-22T03:50:55.488Z,2.31
2022-12-22T03:53:22.073Z,2.45
2022-12-22T03:55:48.669Z,2.63
2022-12-22T03:58:15.325Z,2.72
2022-12-22T04:00:42.067Z,2.49
2022-12-22T04:03:08.989Z,2.70
2022-12-22T04:05:35.693Z,2.55
2022-12-22T04:08:02.274Z,2.76
2022-12-22T04:10:47.429Z,2.56
2022-12-22T04:13:13.997Z,2.50
2022-12-22T04:15:40.943Z,2.44
2022-12-22T04:18:07.871Z,2.59
2022-12-22T04:20:34.485Z,2.37
2022-12-22T04:23:01.584Z,2.57
2022-12-22T04:25:29.604Z,2.47
2022-12-22T04:27:56.278Z,2.89
2022-12-22T04:30:25.897Z,2.59
2022-12-22T04:32:52.501Z,2.64
2022-12-22T04:35:19.350Z,2.73
2022-12-22T04:37:45.939Z,2.77
2022-12-22T04:40:13.532Z,2.92
2022-12-22T04:42:40.138Z,2.70
2022-12-22T04:45:07.311Z,2.82
2022-12-22T04:47:33.959Z,2.91
2022-12-22T04:50:00.587Z,2.90
2022-12-22T04:52:27.312Z,3.01
2022-12-22T04:54:54.000Z,3.03
2022-12-22T04:57:21.443Z,2.90
2022-12-22T04:59:48.061Z,3.07
2022-12-22T05:02:14.775Z,2.96
2022-12-22T05:04:41.439Z,2.97
2022-12-22T05:07:08.235Z,3.26
2022-12-22T05:09:37.723Z,3.25
2022-12-22T05:12:24.545Z,3.29
2022-12-22T05:14:51.190Z,2.78
2022-12-22T05:17:18.033Z,3.01
2022-12-22T05:19:44.677Z,3.26
2022-12-22T05:22:11.462Z,3.29
2022-12-22T05:24:38.100Z,3.13
2022-12-22T05:27:05.079Z,3.08
2022-12-22T05:29:31.803Z,3.17
2022-12-22T05:31:58.387Z,3.21
2022-12-22T05:34:26.442Z,3.32
2022-12-22T05:36:53.049Z,3.04
2022-12-22T05:39:19.719Z,3.10
2022-12-22T05:41:46.601Z,3.38
2022-12-22T05:44:13.296Z,3.24
2022-12-22T05:46:40.000Z,3.49
2022-12-22T05:49:06.796Z,3.41
2022-12-22T05:51:33.495Z,3.36
2022-12-22T05:54:00.176Z,3.43
2022-12-22T05:56:26.816Z,3.38
2022-12-22T05:58:53.409Z,3.65
2022-12-22T06:01:20.042Z,3.47
2022-12-22T06:03:46.715Z,3.60
2022-12-22T06:06:13.478Z,3.65
2022-12-22T06:08:40.036Z,3.66
2022-12-22T06:11:06.761Z,3.34
2022-12-22T06:13:33.475Z,3.37
2022-12-22T06:16:00.288Z,3.36
2022-12-22T06:18:26.953Z,3.45
2022-12-22T06:20:54.268Z,3.40
2022-12-22T06:23:22.466Z,3.28
2022-12-22T06:26:00.036Z,3.35
2022-12-22T06:28:27.425Z,3.54
2022-12-22T06:30:55.254Z,3.46
2022-12-22T06:33:22.026Z,3.13
2022-12-22T06:35:53.959Z,3.55
2022-12-22T06:38:24.447Z,3.21
2022-12-22T06:40:50.967Z,3.57
2022-12-22T06:43:17.597Z,3.54
2022-12-22T06:45:44.492Z,3.26
2022-12-22T06:48:12.561Z,3.54
2022-12-22T06:50:39.791Z,3.28
2022-12-22T06:53:07.739Z,3.42
2022-12-22T06:55:34.517Z,3.32
2022-12-22T06:58:02.063Z,3.48
2022-12-22T07:00:28.898Z,3.42
2022-12-22T07:02:55.769Z,3.63
2022-12-22T07:05:25.933Z,3.20
2022-12-22T07:07:52.886Z,3.60
2022-12-22T07:10:39.725Z,3.55
2022-12-22T07:13:19.333Z,3.59
2022-12-22T07:15:52.091Z,3.40
2022-12-22T07:18:24.368Z,3.54
2022-12-22T07:20:51.025Z,3.61
2022-12-22T07:23:17.912Z,3.72
2022-12-22T07:25:44.601Z,3.43
2022-12-22T07:28:15.071Z,3.35
2022-12-22T07:30:45.076Z,3.66
2022-12-22T07:33:11.769Z,3.58
2022-12-22T07:35:38.369Z,3.35
2022-12-22T07:38:04.981Z,3.30
2022-12-22T07:40:31.624Z,3.15
2022-12-22T07:42:59.590Z,3.75
2022-12-22T07:45:26.775Z,3.74
2022-12-22T07:47:59.480Z,3.94
2022-12-22T07:50:27.697Z,3.98
2022-12-22T07:52:59.913Z,3.72
2022-12-22T07:55:29.165Z,3.98
2022-12-22T07:57:56.083Z,4.00
2022-12-22T08:00:26.554Z,3.94
2022-12-22T08:02:55.710Z,4.01
2022-12-22T08:05:24.026Z,4.07
2022-12-22T08:07:51.847Z,4.06
2022-12-22T08:10:20.295Z,2.62
2022-12-22T08:12:47.142Z,3.82
2022-12-22T08:15:13.819Z,4.16
2022-12-22T08:17:40.871Z,4.10
2022-12-22T08:20:08.287Z,4.10
2022-12-22T08:22:35.140Z,3.60
2022-12-22T08:25:02.178Z,3.91
2022-12-22T08:27:40.522Z,4.24
2022-12-22T08:30:08.124Z,4.35
2022-12-22T08:32:37.582Z,4.32
2022-12-22T08:35:06.274Z,4.16
2022-12-22T08:37:41.043Z,4.41
2022-12-22T08:40:12.926Z,4.31
2022-12-22T08:42:40.487Z,3.36
2022-12-22T08:45:09.267Z,4.26
2022-12-22T08:47:36.291Z,4.49
2022-12-22T08:50:03.843Z,4.69
2022-12-22T08:52:31.538Z,4.84
2022-12-22T08:54:58.176Z,4.87
2022-12-22T08:57:24.929Z,4.98
2022-12-22T08:59:51.723Z,4.83
2022-12-22T09:02:18.750Z,5.04
2022-12-22T09:04:45.470Z,5.38
2022-12-22T09:07:12.445Z,5.37
2022-12-22T09:09:39.217Z,5.04
2022-12-22T09:12:06.402Z,5.44
2022-12-22T09:14:33.540Z,5.50
2022-12-22T09:17:00.383Z,5.53
2022-12-22T09:19:27.109Z,5.54
2022-12-22T09:21:54.787Z,5.70
2022-12-22T09:24:21.429Z,5.84
2022-12-22T09:26:48.182Z,5.79
2022-12-22T09:29:17.775Z,5.75
2022-12-22T09:31:44.720Z,5.96
2022-12-22T09:34:17.696Z,5.84
2022-12-22T09:36:45.384Z,5.74
2022-12-22T09:39:12.624Z,5.96
2022-12-22T09:41:54.516Z,5.63
2022-12-22T09:44:29.770Z,6.05
2022-12-22T09:47:00.674Z,6.14
2022-12-22T09:49:28.278Z,6.02
2022-12-22T09:52:00.462Z,5.95
2022-12-22T09:54:28.442Z,6.23
2022-12-22T09:56:56.532Z,6.01
2022-12-22T09:59:27.371Z,6.16
2022-12-22T10:02:12.167Z,6.36
2022-12-22T10:04:57.543Z,6.43
2022-12-22T10:07:30.303Z,6.46
2022-12-22T10:09:57.047Z,6.47
2022-12-22T10:12:25.549Z,6.32
2022-12-22T10:14:53.876Z,6.52
2022-12-22T10:17:29.125Z,6.91
2022-12-22T10:20:14.690Z,7.07
2022-12-22T10:23:01.070Z,7.23
2022-12-22T10:28:28.137Z,7.51
2022-12-22T10:31:17.350Z,7.63
2022-12-22T10:33:47.600Z,7.50
2022-12-22T10:36:27.594Z,7.55
2022-12-22T10:38:56.731Z,7.30
2022-12-22T10:41:27.311Z,7.34
2022-12-22T10:44:00.859Z,7.38
2022-12-22T10:46:34.555Z,7.34
2022-12-22T10:49:16.492Z,7.22
2022-12-22T10:51:45.809Z,7.26
2022-12-22T10:54:45.597Z,7.35
2022-12-22T10:57:15.265Z,7.37
2022-12-22T11:00:09.944Z,7.39
2022-12-22T11:02:38.682Z,7.39
2022-12-22T11:05:08.973Z,7.39
2022-12-22T11:07:42.380Z,7.20
2022-12-22T11:10:15.538Z,7.38
2022-12-22T11:13:07.135Z,7.41
2022-12-22T11:15:42.497Z,7.40
2022-12-22T11:18:25.319Z,7.36
2022-12-22T11:20:59.982Z,7.21
2022-12-22T11:23:36.464Z,7.32
2022-12-22T11:26:45.656Z,7.56
2022-12-22T11:29:21.349Z,7.74
2022-12-22T11:32:08.634Z,7.87
2022-12-22T11:35:12.407Z,7.69
2022-12-22T11:38:05.085Z,7.82
2022-12-22T11:40:52.657Z,7.82
2022-12-22T11:43:31.007Z,7.82
2022-12-22T11:46:21.591Z,7.84
2022-12-22T11:49:10.216Z,7.78
2022-12-22T11:51:39.629Z,7.74
2022-12-22T11:54:15.264Z,7.59
2022-12-22T11:56:52.023Z,7.48
2022-12-22T11:59:37.593Z,7.43
2022-12-22T12:02:42.995Z,7.33
2022-12-22T12:05:31.215Z,7.28
2022-12-22T12:08:06.896Z,7.22
2022-12-22T12:10:44.849Z,7.12
2022-12-22T12:13:30.116Z,7.14
2022-12-22T12:16:18.691Z,7.07
2022-12-22T12:18:57.568Z,7.09
2022-12-22T12:21:29.719Z,7.02
2022-12-22T12:24:08.788Z,6.92
2022-12-22T12:27:00.632Z,7.01
2022-12-22T12:30:13.546Z,6.98
2022-12-22T12:32:47.727Z,6.89
2022-12-22T12:35:40.539Z,6.84
2022-12-22T12:41:58.559Z,6.85
2022-12-22T12:44:28.812Z,6.84
2022-12-22T12:47:04.338Z,6.48
2022-12-22T12:49:34.151Z,6.79
2022-12-22T12:52:02.569Z,6.65
2022-12-22T12:54:29.126Z,6.84
2022-12-22T12:56:55.660Z,6.87
2022-12-22T12:59:40.587Z,6.84
2022-12-22T13:02:29.962Z,6.80
2022-12-22T13:05:18.128Z,6.83
2022-12-22T13:08:17.854Z,6.89
2022-12-22T13:11:08.803Z,6.79
2022-12-22T13:13:35.467Z,6.90
2022-12-22T13:16:02.299Z,6.88
2022-12-22T13:18:29.129Z,6.85
2022-12-22T13:24:24.552Z,6.90
2022-12-22T13:26:55.232Z,6.65
2022-12-22T13:29:21.897Z,6.89
2022-12-22T13:31:52.629Z,6.90
2022-12-22T13:34:22.407Z,6.89
2022-12-22T13:36:51.000Z,6.78
2022-12-22T13:39:17.663Z,6.73
2022-12-22T13:41:46.659Z,6.76
2022-12-22T13:44:31.357Z,6.76
2022-12-22T13:47:13.350Z,6.95
2022-12-22T13:50:07.728Z,6.66
2022-12-22T13:52:29.050Z,6.69
2022-12-22T13:54:55.751Z,6.73
2022-12-22T13:57:25.174Z,6.60
2022-12-22T13:59:52.419Z,6.55
2022-12-22T14:02:21.750Z,6.76
2022-12-22T14:05:07.847Z,6.85
2022-12-22T14:07:34.546Z,6.86
2022-12-22T14:10:01.340Z,6.70
2022-12-22T14:12:31.708Z,6.86
2022-12-22T14:15:01.934Z,6.73
2022-12-22T14:17:28.592Z,6.89
2022-12-22T14:20:00.969Z,6.85
2022-12-22T14:22:33.950Z,6.90
2022-12-22T14:25:09.335Z,6.62
2022-12-22T14:27:44.641Z,6.97
2022-12-22T14:30:23.540Z,7.01
2022-12-22T14:32:55.961Z,6.98
2022-12-22T14:35:23.121Z,7.00
2022-12-22T14:37:50.926Z,6.87
2022-12-22T14:40:32.798Z,6.98
2022-12-22T14:43:01.763Z,7.00
2022-12-22T14:45:28.551Z,6.63
2022-12-22T14:47:59.137Z,6.86
2022-12-22T14:50:27.807Z,6.79
2022-12-22T14:52:57.127Z,6.65
2022-12-22T14:55:29.827Z,6.90
2022-12-22T14:58:01.511Z,6.73
2022-12-22T15:00:30.739Z,6.92
2022-12-22T15:03:04.238Z,6.90
2022-12-22T15:05:36.212Z,6.87
2022-12-22T15:08:07.255Z,6.89
2022-12-22T15:10:44.707Z,6.67
2022-12-22T15:13:18.367Z,6.74
2022-12-22T15:15:45.182Z,6.89
2022-12-22T15:18:14.976Z,6.78
2022-12-22T15:20:42.146Z,6.88
2022-12-22T15:23:16.644Z,6.68
2022-12-22T15:25:43.441Z,6.69
2022-12-22T15:28:10.098Z,6.90
2022-12-22T15:30:37.429Z,6.90
2022-12-22T15:33:04.450Z,6.76
2022-12-22T15:35:33.680Z,6.79
2022-12-22T15:38:01.245Z,6.73
2022-12-22T15:40:29.067Z,6.91
2022-12-22T15:42:55.789Z,6.73
2022-12-22T15:45:22.839Z,6.90
2022-12-22T15:47:53.385Z,6.91
2022-12-22T15:50:25.551Z,6.66
2022-12-22T15:52:54.931Z,6.89
2022-12-22T15:55:22.080Z,6.52
2022-12-22T15:57:51.666Z,6.67
2022-12-22T16:00:19.380Z,6.72
2022-12-22T16:02:46.459Z,6.75
2022-12-22T16:05:14.992Z,6.68
2022-12-22T16:07:43.041Z,6.81
2022-12-22T16:10:28.181Z,6.55
2022-12-22T16:13:00.713Z,6.82
2022-12-22T16:15:32.964Z,6.80
2022-12-22T16:18:02.850Z,6.27
2022-12-22T16:20:37.382Z,6.59
2022-12-22T16:23:06.246Z,6.76
2022-12-22T16:25:38.917Z,6.75
2022-12-22T16:28:06.662Z,6.77
2022-12-22T16:30:34.450Z,6.79
2022-12-22T16:33:01.320Z,6.70
2022-12-22T16:35:30.229Z,6.63
2022-12-22T16:37:58.349Z,6.76
2022-12-22T16:40:26.874Z,6.69
2022-12-22T16:46:20.187Z,6.72
2022-12-22T16:48:51.185Z,6.63
2022-12-22T16:51:23.240Z,6.51
2022-12-22T16:53:50.301Z,6.35
2022-12-22T16:56:20.368Z,6.55
2022-12-22T16:58:47.633Z,6.68
2022-12-22T17:01:23.972Z,6.64
2022-12-22T17:03:50.799Z,6.64
2022-12-22T17:06:17.741Z,6.39
2022-12-22T17:08:46.619Z,6.46
2022-12-22T17:11:21.645Z,6.43
2022-12-22T17:13:50.343Z,6.64
2022-12-22T17:16:22.307Z,6.37
2022-12-22T17:18:49.658Z,6.60
2022-12-22T17:21:18.804Z,6.59
2022-12-22T17:23:50.564Z,6.55
2022-12-22T17:26:21.314Z,6.46
2022-12-22T17:28:48.857Z,6.49
2022-12-22T17:31:21.288Z,6.58
2022-12-22T17:33:48.647Z,6.46
2022-12-22T17:36:37.272Z,6.56
2022-12-22T17:39:04.777Z,6.56
2022-12-22T17:41:31.847Z,6.30
2022-12-22T17:43:58.489Z,6.53
2022-12-22T17:46:25.291Z,5.99
2022-12-22T17:48:51.991Z,6.27
2022-12-22T17:51:25.607Z,6.49
2022-12-22T17:53:53.217Z,6.48
2022-12-22T17:56:22.053Z,6.46
2022-12-22T17:58:49.503Z,6.43
2022-12-22T18:01:29.437Z,6.47
2022-12-22T18:03:56.993Z,6.25
2022-12-22T18:06:37.247Z,6.29
2022-12-22T18:09:05.201Z,6.26
2022-12-22T18:11:31.935Z,6.42
2022-12-22T18:13:59.918Z,6.41
2022-12-22T18:16:26.873Z,6.41
2022-12-22T18:18:53.556Z,6.25
2022-12-22T18:21:23.224Z,6.19
2022-12-22T18:23:51.486Z,6.31
2022-12-22T18:26:29.490Z,6.31
2022-12-22T18:28:58.103Z,6.27
2022-12-22T18:31:25.533Z,6.03
2022-12-22T18:33:52.374Z,6.24
2022-12-22T18:36:25.716Z,6.16
2022-12-22T18:38:52.457Z,6.16
2022-12-22T18:41:22.888Z,6.13
2022-12-22T18:43:50.593Z,6.36
2022-12-22T18:46:17.876Z,6.26
2022-12-22T18:48:47.247Z,6.20
2022-12-22T18:51:22.413Z,6.41
2022-12-22T18:53:51.468Z,6.13
2022-12-22T18:56:18.440Z,6.44
2022-12-22T18:58:46.096Z,5.97
2022-12-22T19:01:25.786Z,6.00
2022-12-22T19:03:55.281Z,5.98
2022-12-22T19:06:22.748Z,5.82
2022-12-22T19:08:49.857Z,5.55
2022-12-22T19:11:19.653Z,5.84
2022-12-22T19:13:48.621Z,5.81
2022-12-22T19:16:19.137Z,5.79
2022-12-22T19:18:45.891Z,5.87
2022-12-22T19:21:14.667Z,5.85
2022-12-22T19:23:41.676Z,5.95
2022-12-22T19:26:20.309Z,5.53
2022-12-22T19:28:51.037Z,5.53
2022-12-22T19:31:24.710Z,6.15
2022-12-22T19:33:52.599Z,6.17
2022-12-22T19:36:27.219Z,6.18
2022-12-22T19:39:03.483Z,6.02
2022-12-22T19:41:39.883Z,6.18
2022-12-22T19:44:29.013Z,6.09
2022-12-22T19:46:59.194Z,6.04
2022-12-22T19:49:27.699Z,5.74
2022-12-22T19:51:58.497Z,5.91
2022-12-22T19:54:25.273Z,5.92
2022-12-22T19:56:54.681Z,5.86
2022-12-22T19:59:38.945Z,5.93
2022-12-22T20:02:21.441Z,5.97
2022-12-22T20:04:49.613Z,5.93
2022-12-22T20:07:18.011Z,6.17
2022-12-22T20:09:47.429Z,6.20
2022-12-22T20:12:26.556Z,6.29
2022-12-22T20:14:55.862Z,6.32
2022-12-22T20:17:23.143Z,6.06
2022-12-22T20:19:49.824Z,6.06
2022-12-22T20:22:18.295Z,6.31
2022-12-22T20:24:46.338Z,6.39
2022-12-22T20:27:21.820Z,6.22
2022-12-22T20:29:48.622Z,6.21
2022-12-22T20:32:15.830Z,6.39
2022-12-22T20:34:42.822Z,6.21
2022-12-22T20:37:14.558Z,6.30
2022-12-22T20:39:41.308Z,6.16
2022-12-22T20:42:19.369Z,6.17
2022-12-22T20:45:01.662Z,6.17
2022-12-22T20:47:32.496Z,6.08
2022-12-22T20:49:59.509Z,6.17
2022-12-22T20:52:26.485Z,6.18
2022-12-22T20:54:53.163Z,6.14
2022-12-22T20:57:22.107Z,6.12
2022-12-22T20:59:55.657Z,6.20
2022-12-22T21:02:26.988Z,6.12
2022-12-22T21:04:53.965Z,5.98
2022-12-22T21:07:20.584Z,5.86
2022-12-22T21:09:47.167Z,6.11
2022-12-22T21:12:13.825Z,6.11
2022-12-22T21:14:40.485Z,6.15
2022-12-22T21:17:16.061Z,6.08
2022-12-22T21:19:42.859Z,5.84
2022-12-22T21:22:09.598Z,5.99
2022-12-22T21:24:36.458Z,5.98
2022-12-22T21:27:24.499Z,5.93
2022-12-22T21:29:51.116Z,5.69
2022-12-22T21:32:17.753Z,5.53
2022-12-22T21:34:46.985Z,5.78
2022-12-22T21:37:19.836Z,5.72
2022-12-22T21:39:46.535Z,5.66
2022-12-22T21:42:20.079Z,5.57
2022-12-22T21:44:47.166Z,5.85
2022-12-22T21:47:17.449Z,5.85
2022-12-22T21:49:44.205Z,5.68
2022-12-22T21:52:11.656Z,5.85
2022-12-22T21:54:38.521Z,5.88
2022-12-22T21:57:10.761Z,5.77
2022-12-22T21:59:42.434Z,5.71
2022-12-22T22:02:16.945Z,5.89
2022-12-22T22:04:48.401Z,5.71
2022-12-22T22:07:24.690Z,5.98
2022-12-22T22:09:51.637Z,6.02
2022-12-22T22:12:33.664Z,5.89
2022-12-22T22:15:02.205Z,5.60
2022-12-22T22:17:31.282Z,5.78
2022-12-22T22:19:58.157Z,5.56
2022-12-22T22:22:24.895Z,5.70
2022-12-22T22:24:51.805Z,5.66
2022-12-22T22:27:18.531Z,5.74
2022-12-22T22:29:47.455Z,5.74
2022-12-22T22:32:14.187Z,5.77
2022-12-22T22:34:41.134Z,5.85
2022-12-22T22:37:07.897Z,5.85
2022-12-22T22:39:34.601Z,5.99
2022-12-22T22:42:21.745Z,5.70
2022-12-22T22:44:48.636Z,5.67
2022-12-22T22:47:15.449Z,5.87
2022-12-22T22:49:42.149Z,5.69
2022-12-22T22:52:11.132Z,5.91
2022-12-22T22:54:39.629Z,5.82
2022-12-22T22:57:10.007Z,5.74
2022-12-22T22:59:36.661Z,5.72
2022-12-22T23:02:03.508Z,5.84
2022-12-22T23:04:33.602Z,5.94
2022-12-22T23:07:02.637Z,5.63
2022-12-22T23:09:29.466Z,5.89
2022-12-22T23:11:56.301Z,5.76
2022-12-22T23:14:25.647Z,5.82
2022-12-22T23:16:52.420Z,5.85
2022-12-22T23:19:19.230Z,5.78
2022-12-22T23:21:46.359Z,5.72
2022-12-22T23:24:13.356Z,5.95
2022-12-22T23:26:45.174Z,5.70
2022-12-22T23:29:11.795Z,5.63
2022-12-22T23:31:38.479Z,5.83
2022-12-22T23:34:05.540Z,5.59
2022-12-22T23:36:32.859Z,5.89
2022-12-22T23:38:59.502Z,5.79
2022-12-22T23:41:26.204Z,5.90
2022-12-22T23:43:53.772Z,5.60
2022-12-22T23:46:21.052Z,5.37
2022-12-22T23:48:55.824Z,5.65
2022-12-22T23:51:24.843Z,5.55
2022-12-22T23:53:51.573Z,5.59
2022-12-22T23:56:18.801Z,5.61
2022-12-22T23:58:48.227Z,5.46
